createdAt,value
2023-02-11T00:00:34.923Z,73.97
2023-02-11T00:03:02.018Z,74.61
2023-02-11T00:05:29.234Z,73.71
2023-02-11T00:07:56.246Z,73.65
2023-02-11T00:10:23.439Z,72.63
2023-02-11T00:12:50.537Z,72.66
2023-02-11T00:15:17.990Z,72.61
2023-02-11T00:17:44.979Z,73.11
2023-02-11T00:20:12.448Z,74.04
2023-02-11T00:22:39.508Z,74.31
2023-02-11T00:25:06.920Z,74.96
2023-02-11T00:27:34.085Z,75.02
2023-02-11T00:30:02.459Z,74.08
2023-02-11T00:32:31.006Z,73.58
2023-02-11T00:34:58.255Z,72.52
2023-02-11T00:37:25.253Z,73.90
2023-02-11T00:39:52.463Z,72.58
2023-02-11T00:42:19.562Z,72.42
2023-02-11T00:44:46.563Z,71.21
2023-02-11T00:47:17.077Z,70.95
2023-02-11T00:49:44.404Z,70.30
2023-02-11T00:52:11.424Z,70.17
2023-02-11T00:54:38.528Z,68.60
2023-02-11T00:57:06.940Z,70.46
2023-02-11T00:59:33.961Z,71.47
2023-02-11T01:02:01.941Z,71.29
2023-02-11T01:04:28.966Z,70.05
2023-02-11T01:06:56.175Z,70.43
2023-02-11T01:09:25.193Z,69.81
2023-02-11T01:11:52.298Z,68.32
2023-02-11T01:14:19.362Z,69.19
2023-02-11T01:16:46.475Z,68.37
2023-02-11T01:19:13.768Z,68.60
2023-02-11T01:21:41.067Z,68.87
2023-02-11T01:24:08.267Z,68.62
2023-02-11T01:26:36.239Z,67.80
2023-02-11T01:29:04.058Z,68.32
2023-02-11T01:31:31.729Z,68.32
2023-02-11T01:34:01.271Z,67.89
2023-02-11T01:36:28.562Z,68.03
2023-02-11T01:38:55.767Z,68.59
2023-02-11T01:41:22.808Z,67.68
2023-02-11T01:43:50.905Z,66.92
2023-02-11T01:46:38.530Z,66.83
2023-02-11T01:49:15.298Z,67.98
2023-02-11T01:51:47.808Z,67.75
2023-02-11T01:54:40.728Z,66.68
2023-02-11T01:57:27.708Z,67.19
2023-02-11T01:59:58.146Z,66.55
2023-02-11T02:02:43.046Z,66.69
2023-02-11T02:05:16.794Z,66.74
2023-02-11T02:07:56.237Z,67.37
2023-02-11T02:10:26.557Z,66.88
2023-02-11T02:12:53.764Z,66.05
2023-02-11T02:15:34.032Z,65.99
2023-02-11T02:18:15.169Z,66.08
2023-02-11T02:20:51.458Z,66.54
2023-02-11T02:23:57.939Z,66.74
2023-02-11T02:26:54.038Z,67.87
2023-02-11T02:29:42.694Z,66.36
2023-02-11T02:32:33.665Z,65.50
2023-02-11T02:35:12.909Z,65.03
2023-02-11T02:37:52.212Z,65.56
2023-02-11T02:40:29.709Z,64.49
2023-02-11T02:42:58.514Z,64.16
2023-02-11T02:45:25.486Z,64.51
2023-02-11T02:47:52.687Z,64.82
2023-02-11T02:50:30.390Z,64.97
2023-02-11T02:53:20.520Z,63.96
2023-02-11T02:55:47.656Z,63.33
2023-02-11T02:58:33.506Z,61.68
2023-02-11T03:01:19.082Z,60.85
2023-02-11T03:04:01.677Z,61.28
2023-02-11T03:06:47.314Z,61.04
2023-02-11T03:09:40.537Z,61.52
2023-02-11T03:12:10.800Z,62.83
2023-02-11T03:14:39.116Z,63.04
2023-02-11T03:17:08.619Z,63.12
2023-02-11T03:19:38.968Z,61.78
2023-02-11T03:22:12.058Z,61.71
2023-02-11T03:24:41.532Z,62.37
2023-02-11T03:27:20.708Z,62.05
2023-02-11T03:29:59.733Z,62.99
2023-02-11T03:32:36.547Z,63.74
2023-02-11T03:35:21.769Z,63.78
2023-02-11T03:37:55.652Z,61.95
2023-02-11T03:40:32.791Z,62.07
2023-02-11T03:43:13.340Z,63.33
2023-02-11T03:45:41.283Z,64.27
2023-02-11T03:48:43.288Z,65.55
2023-02-11T03:51:12.883Z,66.48
2023-02-11T03:53:43.255Z,66.24
2023-02-11T03:56:18.074Z,66.29
2023-02-11T03:58:46.164Z,66.90
2023-02-11T04:01:13.413Z,65.71
2023-02-11T04:03:40.596Z,65.04
2023-02-11T04:06:08.116Z,64.87
2023-02-11T04:08:35.264Z,65.04
2023-02-11T04:11:02.418Z,66.00
2023-02-11T04:13:29.956Z,67.16
2023-02-11T04:15:57.050Z,67.56
2023-02-11T04:18:24.428Z,68.16
2023-02-11T04:20:51.634Z,68.26
2023-02-11T04:23:18.689Z,68.81
2023-02-11T04:25:45.877Z,69.32
2023-02-11T04:28:13.874Z,69.64
2023-02-11T04:30:41.251Z,70.05
2023-02-11T04:33:08.311Z,70.76
2023-02-11T04:35:35.480Z,71.14
2023-02-11T04:38:03.822Z,71.93
2023-02-11T04:40:30.984Z,71.83
2023-02-11T04:42:58.159Z,72.10
2023-02-11T04:45:25.258Z,72.04
2023-02-11T04:47:52.418Z,72.35
2023-02-11T04:50:19.580Z,72.46
2023-02-11T04:52:46.810Z,72.57
2023-02-11T04:55:14.054Z,72.98
2023-02-11T04:57:41.134Z,73.01
2023-02-11T05:00:10.142Z,73.25
2023-02-11T05:02:37.221Z,73.38
2023-02-11T05:05:05.199Z,73.97
2023-02-11T05:07:32.561Z,73.95
2023-02-11T05:09:59.695Z,74.28
2023-02-11T05:12:26.753Z,74.56
2023-02-11T05:14:53.975Z,74.40
2023-02-11T05:17:21.148Z,74.94
2023-02-11T05:19:48.426Z,74.49
2023-02-11T05:22:15.409Z,74.21
2023-02-11T05:24:42.564Z,73.94
2023-02-11T05:27:09.620Z,74.10
2023-02-11T05:29:36.812Z,74.13
2023-02-11T05:32:03.893Z,74.22
2023-02-11T05:34:31.101Z,74.47
2023-02-11T05:36:58.177Z,74.72
2023-02-11T05:39:25.258Z,74.42
2023-02-11T05:41:52.476Z,73.95
2023-02-11T05:44:19.496Z,74.36
2023-02-11T05:46:46.732Z,74.65
2023-02-11T05:49:13.744Z,74.69
2023-02-11T05:51:41.295Z,74.63
2023-02-11T05:54:08.400Z,74.08
2023-02-11T05:56:35.628Z,74.06
2023-02-11T05:59:02.819Z,74.38
2023-02-11T06:01:29.870Z,73.88
2023-02-11T06:03:57.352Z,74.14
2023-02-11T06:06:25.714Z,74.23
2023-02-11T06:08:52.780Z,73.68
2023-02-11T06:11:20.516Z,73.55
2023-02-11T06:13:47.565Z,73.21
2023-02-11T06:16:14.872Z,73.59
2023-02-11T06:18:42.018Z,73.97
2023-02-11T06:21:11.136Z,74.10
2023-02-11T06:23:39.014Z,72.96
2023-02-11T06:26:09.009Z,72.20
2023-02-11T06:28:36.552Z,70.87
2023-02-11T06:31:07.177Z,69.74
2023-02-11T06:33:35.259Z,68.43
2023-02-11T06:36:03.446Z,66.73
2023-02-11T06:38:30.723Z,67.21
2023-02-11T06:40:57.750Z,65.29
2023-02-11T06:43:24.785Z,63.80
2023-02-11T06:45:56.190Z,62.53
2023-02-11T06:48:24.297Z,61.35
2023-02-11T06:50:51.372Z,59.96
2023-02-11T06:53:18.554Z,59.10
2023-02-11T06:55:45.528Z,58.36
2023-02-11T06:58:12.716Z,58.01
2023-02-11T07:00:39.798Z,57.71
2023-02-11T07:03:06.988Z,59.31
2023-02-11T07:05:34.519Z,59.26
2023-02-11T07:08:01.747Z,60.21
2023-02-11T07:10:28.793Z,60.82
2023-02-11T07:12:58.637Z,61.77
2023-02-11T07:15:26.032Z,62.36
2023-02-11T07:17:53.180Z,62.72
2023-02-11T07:20:20.543Z,62.94
2023-02-11T07:22:47.611Z,63.97
2023-02-11T07:25:16.102Z,63.96
2023-02-11T07:27:43.385Z,64.07
2023-02-11T07:30:11.435Z,64.67
2023-02-11T07:32:38.441Z,64.98
2023-02-11T07:35:06.104Z,65.16
2023-02-11T07:37:36.336Z,65.58
2023-02-11T07:40:03.730Z,65.85
2023-02-11T07:42:32.001Z,65.75
2023-02-11T07:44:59.228Z,65.21
2023-02-11T07:47:26.317Z,65.50
2023-02-11T07:49:56.468Z,64.77
2023-02-11T07:52:23.988Z,63.58
2023-02-11T07:54:51.167Z,63.37
2023-02-11T07:57:18.602Z,62.75
2023-02-11T07:59:45.770Z,62.17
2023-02-11T08:02:12.820Z,62.25
2023-02-11T08:04:40.045Z,61.65
2023-02-11T08:07:07.246Z,61.66
2023-02-11T08:09:34.681Z,59.96
2023-02-11T08:12:01.851Z,59.49
2023-02-11T08:14:29.060Z,59.72
2023-02-11T08:16:56.101Z,60.83
2023-02-11T08:19:23.153Z,61.40
2023-02-11T08:21:50.669Z,61.63
2023-02-11T08:24:17.706Z,61.82
2023-02-11T08:26:44.891Z,60.86
2023-02-11T08:29:14.113Z,61.25
2023-02-11T08:31:43.420Z,61.13
2023-02-11T08:34:11.851Z,60.70
2023-02-11T08:36:40.455Z,60.04
2023-02-11T08:39:19.922Z,60.51
2023-02-11T08:41:50.080Z,60.44
2023-02-11T08:44:19.073Z,60.53
2023-02-11T08:46:46.764Z,61.45
2023-02-11T08:49:14.812Z,61.69
2023-02-11T08:51:42.265Z,61.15
2023-02-11T08:54:10.153Z,60.68
2023-02-11T08:56:39.213Z,60.59
2023-02-11T08:59:07.221Z,60.08
2023-02-11T09:01:34.500Z,61.33
2023-02-11T09:04:01.731Z,60.92
2023-02-11T09:06:29.265Z,60.99
2023-02-11T09:08:57.501Z,59.44
2023-02-11T09:11:36.018Z,59.95
2023-02-11T09:14:04.559Z,60.49
2023-02-11T09:16:33.962Z,59.10
2023-02-11T09:19:02.334Z,59.58
2023-02-11T09:21:30.460Z,59.90
2023-02-11T09:23:58.003Z,57.73
2023-02-11T09:26:28.016Z,56.76
2023-02-11T09:28:55.645Z,57.35
2023-02-11T09:31:26.302Z,57.48
2023-02-11T09:33:57.489Z,57.48
2023-02-11T09:36:30.541Z,57.36
2023-02-11T09:39:00.344Z,56.24
2023-02-11T09:41:49.417Z,56.79
2023-02-11T09:44:28.870Z,56.74
2023-02-11T09:47:15.830Z,56.74
2023-02-11T09:49:48.895Z,55.49
2023-02-11T09:52:18.704Z,57.90
2023-02-11T09:54:53.183Z,57.42
2023-02-11T09:57:28.676Z,57.56
2023-02-11T09:59:57.955Z,58.15
2023-02-11T10:02:48.057Z,58.73
2023-02-11T10:05:21.247Z,56.96
2023-02-11T10:08:07.855Z,59.52
2023-02-11T10:10:48.178Z,59.97
2023-02-11T10:13:30.712Z,60.22
2023-02-11T10:16:18.376Z,61.62
2023-02-11T10:19:07.507Z,59.60
2023-02-11T10:21:46.695Z,60.36
2023-02-11T10:24:16.163Z,61.53
2023-02-11T10:26:44.788Z,60.68
2023-02-11T10:29:16.661Z,61.11
2023-02-11T10:31:46.844Z,58.92
2023-02-11T10:34:15.536Z,59.11
2023-02-11T10:36:44.481Z,59.06
2023-02-11T10:39:17.795Z,58.66
2023-02-11T10:42:11.023Z,58.31
2023-02-11T10:45:00.654Z,58.33
2023-02-11T10:47:33.392Z,59.46
2023-02-11T10:50:03.818Z,60.50
2023-02-11T10:52:31.639Z,61.18
2023-02-11T10:55:24.667Z,60.02
2023-02-11T10:57:56.464Z,59.02
2023-02-11T11:00:29.417Z,57.17
2023-02-11T11:02:59.836Z,59.25
2023-02-11T11:05:46.596Z,57.84
2023-02-11T11:08:13.803Z,57.98
2023-02-11T11:10:44.915Z,58.75
2023-02-11T11:13:31.414Z,57.23
2023-02-11T11:16:13.496Z,57.34
2023-02-11T11:18:49.593Z,59.24
2023-02-11T11:21:36.914Z,57.73
2023-02-11T11:24:04.656Z,59.25
2023-02-11T11:26:48.090Z,57.05
2023-02-11T11:29:24.612Z,57.98
2023-02-11T11:31:54.156Z,57.69
2023-02-11T11:34:33.675Z,57.16
2023-02-11T11:37:10.730Z,57.50
2023-02-11T11:39:39.504Z,59.31
2023-02-11T11:42:28.700Z,59.40
2023-02-11T11:45:19.893Z,59.07
2023-02-11T11:47:58.839Z,60.56
2023-02-11T11:50:53.936Z,58.99
2023-02-11T11:53:21.537Z,58.05
2023-02-11T11:56:05.366Z,58.35
2023-02-11T11:58:32.816Z,59.51
2023-02-11T12:01:05.629Z,59.28
2023-02-11T12:03:51.743Z,58.33
2023-02-11T12:06:35.340Z,57.99
2023-02-11T12:09:18.020Z,58.23
2023-02-11T12:12:09.103Z,58.51
2023-02-11T12:14:36.270Z,57.12
2023-02-11T12:17:21.601Z,58.00
2023-02-11T12:19:57.633Z,58.33
2023-02-11T12:22:39.861Z,59.44
2023-02-11T12:25:28.410Z,58.02
2023-02-11T12:28:16.350Z,58.70
2023-02-11T12:31:34.035Z,57.08
2023-02-11T12:34:31.719Z,57.42
2023-02-11T12:37:09.439Z,58.13
2023-02-11T12:39:42.286Z,58.25
2023-02-11T12:42:55.900Z,57.80
2023-02-11T12:45:39.058Z,58.25
2023-02-11T12:48:13.026Z,57.50
2023-02-11T12:50:43.247Z,58.24
2023-02-11T12:53:41.490Z,58.69
2023-02-11T12:56:25.197Z,58.57
2023-02-11T12:58:56.304Z,58.78
2023-02-11T13:01:37.028Z,60.11
2023-02-11T13:04:16.340Z,59.67
2023-02-11T13:06:56.350Z,59.20
2023-02-11T13:09:30.847Z,60.17
2023-02-11T13:12:22.548Z,60.25
2023-02-11T13:14:53.049Z,60.49
2023-02-11T13:17:36.340Z,60.64
2023-02-11T13:20:20.953Z,59.72
2023-02-11T13:23:10.333Z,58.86
2023-02-11T13:25:53.809Z,58.66
2023-02-11T13:28:28.568Z,57.65
2023-02-11T13:31:03.152Z,57.91
2023-02-11T13:33:39.678Z,56.83
2023-02-11T13:36:06.690Z,58.48
2023-02-11T13:38:34.558Z,58.32
2023-02-11T13:41:22.394Z,58.87
2023-02-11T13:44:22.396Z,59.19
2023-02-11T13:47:07.238Z,57.59
2023-02-11T13:49:42.979Z,58.43
2023-02-11T13:52:35.048Z,56.13
2023-02-11T13:55:21.820Z,56.67
2023-02-11T13:58:07.400Z,56.87
2023-02-11T14:00:34.385Z,57.66
2023-02-11T14:03:29.164Z,58.64
2023-02-11T14:06:37.424Z,56.57
2023-02-11T14:09:10.654Z,57.64
2023-02-11T14:12:16.443Z,59.31
2023-02-11T14:15:07.980Z,58.09
2023-02-11T14:17:35.495Z,59.13
2023-02-11T14:20:05.101Z,59.42
2023-02-11T14:22:47.968Z,58.84
2023-02-11T14:25:24.378Z,58.46
2023-02-11T14:28:02.326Z,58.25
2023-02-11T14:30:51.485Z,59.64
2023-02-11T14:33:48.043Z,61.60
2023-02-11T14:36:43.805Z,62.26
2023-02-11T14:39:32.879Z,61.88
2023-02-11T14:42:02.882Z,61.40
2023-02-11T14:44:33.276Z,61.01
2023-02-11T14:47:00.888Z,61.03
2023-02-11T14:49:32.294Z,61.10
2023-02-11T14:52:28.765Z,59.47
2023-02-11T14:55:17.708Z,59.83
2023-02-11T14:57:45.975Z,59.23
2023-02-11T15:00:22.452Z,58.24
2023-02-11T15:02:49.659Z,58.82
2023-02-11T15:05:26.213Z,60.41
2023-02-11T15:07:56.408Z,59.84
2023-02-11T15:10:44.298Z,60.14
2023-02-11T15:13:27.306Z,60.65
2023-02-11T15:16:10.102Z,60.80
2023-02-11T15:18:45.111Z,61.15
2023-02-11T15:21:12.470Z,62.71
2023-02-11T15:23:41.232Z,61.97
2023-02-11T15:26:18.120Z,62.00
2023-02-11T15:28:52.766Z,62.26
2023-02-11T15:31:23.559Z,62.75
2023-02-11T15:33:51.848Z,63.17
2023-02-11T15:36:24.040Z,60.82
2023-02-11T15:39:41.281Z,62.24
2023-02-11T15:42:27.842Z,61.90
2023-02-11T15:45:17.131Z,61.87
2023-02-11T15:47:51.488Z,62.08
2023-02-11T15:50:26.971Z,61.99
2023-02-11T15:52:56.369Z,62.16
2023-02-11T15:55:25.588Z,62.23
2023-02-11T15:57:57.384Z,62.03
2023-02-11T16:00:36.252Z,61.20
2023-02-11T16:03:03.778Z,61.93
2023-02-11T16:05:34.868Z,62.29
2023-02-11T16:08:27.142Z,62.69
2023-02-11T16:11:03.492Z,62.42
2023-02-11T16:13:43.502Z,62.50
2023-02-11T16:16:26.693Z,63.21
2023-02-11T16:19:05.218Z,62.72
2023-02-11T16:21:42.606Z,63.69
2023-02-11T16:24:20.367Z,63.82
2023-02-11T16:26:50.379Z,64.79
2023-02-11T16:29:37.990Z,64.66
2023-02-11T16:32:21.049Z,65.01
2023-02-11T16:34:51.076Z,64.44
2023-02-11T16:37:18.328Z,64.66
2023-02-11T16:39:45.547Z,65.56
2023-02-11T16:42:13.137Z,65.78
2023-02-11T16:44:40.161Z,66.21
2023-02-11T16:47:17.076Z,65.13
2023-02-11T16:49:44.310Z,64.20
2023-02-11T16:52:16.316Z,63.27
2023-02-11T16:54:43.539Z,63.53
2023-02-11T16:57:24.355Z,64.63
2023-02-11T16:59:52.301Z,64.64
2023-02-11T17:02:26.004Z,64.83
2023-02-11T17:04:55.410Z,65.53
2023-02-11T17:07:22.836Z,66.64
2023-02-11T17:09:50.292Z,66.86
2023-02-11T17:12:17.308Z,66.66
2023-02-11T17:14:44.405Z,67.44
2023-02-11T17:17:12.128Z,66.74
2023-02-11T17:19:39.676Z,66.81
2023-02-11T17:22:07.010Z,67.11
2023-02-11T17:24:34.187Z,67.43
2023-02-11T17:27:01.217Z,67.78
2023-02-11T17:29:28.724Z,67.85
2023-02-11T17:31:55.937Z,68.22
2023-02-11T17:34:23.989Z,68.62
2023-02-11T17:36:51.959Z,69.21
2023-02-11T17:39:21.236Z,69.94
2023-02-11T17:41:48.460Z,70.28
2023-02-11T17:44:16.629Z,70.71
2023-02-11T17:46:44.019Z,70.92
2023-02-11T17:49:12.462Z,71.47
2023-02-11T17:51:40.778Z,71.33
2023-02-11T17:54:11.393Z,71.13
2023-02-11T17:56:39.312Z,71.10
2023-02-11T17:59:08.643Z,71.43
2023-02-11T18:01:37.288Z,71.54
2023-02-11T18:04:05.446Z,71.65
2023-02-11T18:06:33.962Z,71.52
2023-02-11T18:09:04.428Z,71.43
2023-02-11T18:11:34.136Z,71.60
2023-02-11T18:14:07.890Z,71.65
2023-02-11T18:16:39.374Z,71.63
2023-02-11T18:19:07.884Z,71.70
2023-02-11T18:21:35.376Z,71.90
2023-02-11T18:24:06.527Z,72.39
2023-02-11T18:26:34.685Z,72.59
2023-02-11T18:29:02.037Z,72.69
2023-02-11T18:31:29.437Z,72.87
2023-02-11T18:33:56.631Z,73.05
2023-02-11T18:36:23.766Z,73.03
2023-02-11T18:38:52.758Z,73.17
2023-02-11T18:41:20.033Z,73.46
2023-02-11T18:43:47.217Z,73.38
2023-02-11T18:46:15.491Z,73.58
2023-02-11T18:48:44.936Z,73.81
2023-02-11T18:51:21.205Z,73.92
2023-02-11T18:53:48.386Z,74.10
2023-02-11T18:56:18.255Z,74.16
2023-02-11T18:58:45.486Z,74.23
2023-02-11T19:01:18.673Z,74.51
2023-02-11T19:03:45.991Z,74.85
2023-02-11T19:06:25.581Z,75.04
2023-02-11T19:08:55.913Z,74.99
2023-02-11T19:11:44.081Z,75.22
2023-02-11T19:14:11.797Z,75.30
2023-02-11T19:16:41.769Z,75.44
2023-02-11T19:19:09.626Z,75.49
2023-02-11T19:21:37.128Z,75.73
2023-02-11T19:24:08.335Z,76.21
2023-02-11T19:26:36.406Z,76.29
2023-02-11T19:29:05.817Z,76.14
2023-02-11T19:31:33.093Z,76.28
2023-02-11T19:34:02.008Z,76.61
2023-02-11T19:36:29.776Z,76.85
2023-02-11T19:39:01.052Z,76.78
2023-02-11T19:41:29.608Z,76.89
2023-02-11T19:43:57.159Z,76.95
2023-02-11T19:46:26.118Z,77.65
2023-02-11T19:48:53.694Z,77.51
2023-02-11T19:51:21.091Z,77.68
2023-02-11T19:53:49.001Z,77.84
2023-02-11T19:56:16.304Z,77.65
2023-02-11T19:58:44.347Z,78.28
2023-02-11T20:01:13.072Z,77.94
2023-02-11T20:03:42.417Z,78.03
2023-02-11T20:06:13.174Z,77.84
2023-02-11T20:08:41.402Z,77.91
2023-02-11T20:11:11.239Z,77.73
2023-02-11T20:13:38.694Z,77.63
2023-02-11T20:16:14.200Z,77.58
2023-02-11T20:18:41.373Z,77.67
2023-02-11T20:21:10.979Z,77.71
2023-02-11T20:23:40.350Z,77.69
2023-02-11T20:26:09.885Z,77.84
2023-02-11T20:28:37.301Z,78.30
2023-02-11T20:31:05.771Z,78.00
2023-02-11T20:33:34.932Z,77.83
2023-02-11T20:36:23.671Z,77.68
2023-02-11T20:38:51.668Z,77.58
2023-02-11T20:41:22.479Z,77.43
2023-02-11T20:43:53.278Z,77.28
2023-02-11T20:46:23.831Z,77.38
2023-02-11T20:48:52.212Z,77.55
2023-02-11T20:51:23.070Z,77.51
2023-02-11T20:53:54.270Z,77.56
2023-02-11T20:56:24.150Z,77.27
2023-02-11T20:58:51.614Z,77.57
2023-02-11T21:01:24.098Z,77.72
2023-02-11T21:04:02.566Z,77.95
2023-02-11T21:06:36.161Z,78.20
2023-02-11T21:09:05.722Z,78.07
2023-02-11T21:11:32.938Z,77.82
2023-02-11T21:14:02.534Z,77.42
2023-02-11T21:16:31.458Z,77.01
2023-02-11T21:18:58.728Z,76.78
2023-02-11T21:21:26.322Z,77.03
2023-02-11T21:23:53.379Z,76.93
2023-02-11T21:26:20.548Z,77.08
2023-02-11T21:28:48.827Z,76.90
2023-02-11T21:31:27.902Z,77.13
2023-02-11T21:33:55.672Z,76.87
2023-02-11T21:36:24.092Z,76.85
2023-02-11T21:38:51.291Z,76.82
2023-02-11T21:41:21.345Z,76.85
2023-02-11T21:43:49.209Z,77.71
2023-02-11T21:46:17.563Z,77.13
2023-02-11T21:48:44.851Z,77.44
2023-02-11T21:51:19.190Z,77.53
2023-02-11T21:53:46.600Z,77.67
2023-02-11T21:56:16.373Z,77.75
2023-02-11T21:58:43.865Z,78.02
2023-02-11T22:01:20.001Z,78.12
2023-02-11T22:03:47.884Z,77.81
2023-02-11T22:06:21.757Z,77.67
2023-02-11T22:08:50.246Z,78.29
2023-02-11T22:11:17.901Z,78.46
2023-02-11T22:13:45.998Z,78.93
2023-02-11T22:16:15.958Z,78.56
2023-02-11T22:18:47.109Z,78.06
2023-02-11T22:21:18.399Z,78.28
2023-02-11T22:23:46.130Z,78.62
2023-02-11T22:26:15.963Z,78.64
2023-02-11T22:28:43.855Z,78.94
2023-02-11T22:31:19.244Z,79.06
2023-02-11T22:33:46.998Z,80.19
2023-02-11T22:36:22.627Z,79.99
2023-02-11T22:38:50.336Z,79.93
2023-02-11T22:41:18.829Z,79.93
2023-02-11T22:43:46.432Z,80.07
2023-02-11T22:46:16.807Z,80.16
2023-02-11T22:48:44.255Z,80.36
2023-02-11T22:51:14.403Z,80.35
2023-02-11T22:53:43.778Z,80.53
2023-02-11T22:56:15.310Z,80.66
2023-02-11T22:58:43.268Z,80.18
2023-02-11T23:01:10.657Z,80.48
2023-02-11T23:03:37.842Z,80.58
2023-02-11T23:06:05.648Z,80.73
2023-02-11T23:08:33.802Z,80.67
2023-02-11T23:11:10.197Z,81.11
2023-02-11T23:13:39.836Z,81.51
2023-02-11T23:16:10.674Z,81.16
2023-02-11T23:18:39.532Z,81.50
2023-02-11T23:21:12.351Z,81.49
2023-02-11T23:23:40.141Z,81.31
2023-02-11T23:26:13.413Z,81.50
2023-02-11T23:28:41.090Z,81.40
2023-02-11T23:31:14.186Z,81.53
2023-02-11T23:33:41.381Z,81.27
2023-02-11T23:36:08.663Z,81.29
2023-02-11T23:38:35.847Z,81.31
2023-02-11T23:41:03.129Z,81.15
2023-02-11T23:43:30.542Z,81.27
2023-02-11T23:45:57.930Z,81.40
2023-02-11T23:48:26.044Z,81.60
2023-02-11T23:50:53.553Z,81.60
2023-02-11T23:53:20.731Z,81.42
2023-02-11T23:55:47.825Z,81.32
2023-02-11T23:58:16.845Z,81.72
